Flight Track Log - Related Links

Times and Time Zones

All times are in EDT time to prevent confusion due to time zone crossing. See the CES5457 flight status page for this flight to view local times or setup timezone preferences in your user account.

Time Position Orientation Groundspeed Altitude Reporting Facility
EDT Latitude Longitude Course Direction KTS MPH feet Rate Location/Type
Wed 03:33:00 AM 37.8385 117.5514 343° North  Level Estimated
Wed 03:34:00 AM 37.9320 117.5123 342° North  Level Estimated
Wed 03:35:00 AM 38.0255 117.4731 342° North  Level Estimated
Wed 03:36:00 AM 38.1189 117.4339 342° North  Level Estimated
Wed 03:37:00 AM 38.2124 117.3945 342° North  Level Estimated
Wed 03:38:00 AM 38.3059 117.3550 342° North  Level Estimated
Wed 03:39:00 AM 38.3993 117.3155 342° North  Level Estimated
Wed 03:40:00 AM 38.4927 117.2758 342° North  Level Estimated
Wed 03:41:00 AM 38.5861 117.2360 342° North  Level Estimated
Wed 03:42:00 AM 38.6795 117.1962 342° North  Level Estimated
Wed 03:43:00 AM 38.7729 117.1562 342° North  Level Estimated
Wed 03:44:00 AM 38.8662 117.1161 342° North  Level Estimated
Wed 03:45:00 AM 38.9596 117.0759 341° North  Level Estimated
Wed 03:46:00 AM 39.0529 117.0356 341° North  Level Estimated
Wed 03:47:00 AM 39.1463 116.9952 341° North  Level Estimated
Wed 03:48:00 AM 39.2396 116.9547 341° North  Level Estimated
Wed 03:49:00 AM 39.3329 116.9141 341° North  Level Estimated
Wed 03:50:00 AM 39.4261 116.8734 341° North  Level Estimated
Wed 03:51:00 AM 39.5194 116.8325 341° North  Level Estimated
Wed 03:52:00 AM 39.6127 116.7916 341° North  Level Estimated
Wed 03:53:00 AM 39.7059 116.7505 341° North  Level Estimated
Wed 03:54:00 AM 39.7991 116.7094 341° North  Level Estimated
Wed 03:55:00 AM 39.8923 116.6681 341° North  Level Estimated
Wed 03:56:00 AM 39.9855 116.6267 341° North  Level Estimated
Wed 03:57:00 AM 40.0787 116.5852 341° North  Level Estimated
Wed 03:58:00 AM 40.0801 116.5846 341° North  Level Estimated
Wed 03:59:00 AM 40.0801 116.5846 North  Level Estimated
Wed 04:00:00 AM 40.0801 116.5846 North  Level Estimated
Wed 04:01:00 AM 40.0801 116.5846 North  Level Estimated
Wed 04:02:00 AM 40.0801 116.5846 North  Level Estimated
Wed 04:03:00 AM 40.0801 116.5846 North  Level Estimated
Wed 04:04:00 AM 40.0801 116.5846 North  Level Estimated
Wed 04:05:00 AM 40.0801 116.5846 North  Level Estimated
Wed 04:06:00 AM 40.0801 116.5846 North  Level Estimated
Wed 04:07:00 AM 40.0801 116.5846 North  Level Estimated
Wed 04:08:00 AM 40.0801 116.5846 North  Level Estimated
Wed 04:09:00 AM 40.0801 116.5846 North  Level Estimated
Wed 04:10:00 AM 40.0801 116.5846 North  Level Estimated
Wed 04:11:00 AM 40.0801 116.5846 North  Level Estimated
Wed 04:12:00 AM 40.0801 116.5846 North  Level Estimated
Wed 04:13:00 AM 40.0801 116.5846 North  Level Estimated

Login

Don't have an account? Register now (free) for customized features, flight alerts, and more!